createdAt,value
2019-04-11T00:01:52.856Z,31.00
2019-04-11T00:04:21.971Z,30.77
2019-04-11T00:06:54.004Z,27.15
2019-04-11T00:09:22.729Z,27.62
2019-04-11T00:11:50.708Z,25.60
2019-04-11T00:14:19.933Z,28.02
2019-04-11T00:16:47.857Z,28.80
2019-04-11T00:19:19.062Z,28.55
2019-04-11T00:21:46.963Z,30.95
2019-04-11T00:24:14.755Z,32.03
2019-04-11T00:26:42.710Z,31.85
2019-04-11T00:29:10.567Z,33.15
2019-04-11T00:31:39.080Z,32.90
2019-04-11T00:34:08.818Z,33.30
2019-04-11T00:36:39.087Z,37.00
2019-04-11T00:39:13.222Z,38.83
2019-04-11T00:41:41.869Z,39.48
2019-04-11T00:44:13.195Z,38.38
2019-04-11T00:46:41.193Z,36.23
2019-04-11T00:49:10.219Z,40.20
2019-04-11T00:51:38.518Z,41.65
2019-04-11T00:54:06.708Z,42.98
2019-04-11T00:56:34.775Z,43.17
2019-04-11T00:59:02.668Z,41.05
2019-04-11T01:01:31.516Z,43.17
2019-04-11T01:03:59.925Z,43.45
2019-04-11T01:06:28.220Z,48.98
2019-04-11T01:08:56.219Z,46.68
2019-04-11T01:11:24.794Z,44.42
2019-04-11T01:13:55.308Z,41.30
2019-04-11T01:16:43.010Z,38.42
2019-04-11T01:19:12.245Z,34.10
2019-04-11T01:21:40.461Z,30.15
2019-04-11T01:24:09.286Z,28.60
2019-04-11T01:26:37.692Z,27.98
2019-04-11T01:29:07.156Z,24.63
2019-04-11T01:31:36.157Z,23.25
2019-04-11T01:34:04.516Z,22.85
2019-04-11T01:36:35.450Z,25.23
2019-04-11T01:39:15.054Z,25.52
2019-04-11T01:41:42.783Z,24.57
2019-04-11T01:44:10.786Z,23.80
2019-04-11T01:46:40.779Z,24.60
2019-04-11T01:49:14.546Z,24.18
2019-04-11T01:51:42.644Z,25.10
2019-04-11T01:54:11.183Z,25.10
2019-04-11T01:56:39.234Z,24.65
2019-04-11T01:59:07.091Z,26.40
2019-04-11T02:01:45.191Z,25.77
2019-04-11T02:04:19.469Z,28.95
2019-04-11T02:06:47.911Z,32.60
2019-04-11T02:09:15.975Z,35.05
2019-04-11T02:11:45.688Z,36.63
2019-04-11T02:14:17.022Z,37.05
2019-04-11T02:16:45.370Z,39.70
2019-04-11T02:19:14.634Z,35.83
2019-04-11T02:21:44.166Z,38.08
2019-04-11T02:24:43.786Z,39.55
2019-04-11T02:27:19.121Z,40.55
2019-04-11T02:29:47.500Z,39.38
2019-04-11T02:32:18.511Z,41.53
2019-04-11T02:34:48.083Z,40.23
2019-04-11T02:37:19.597Z,40.90
2019-04-11T02:39:49.387Z,41.85
2019-04-11T02:42:19.058Z,40.33
2019-04-11T02:45:06.408Z,45.45
2019-04-11T02:47:22.842Z,41.15
2019-04-11T02:49:47.730Z,41.75
2019-04-11T02:52:17.534Z,40.95
2019-04-11T02:54:47.365Z,40.70
2019-04-11T02:57:16.409Z,42.53
2019-04-11T02:59:47.256Z,41.90
2019-04-11T03:02:19.257Z,42.50
2019-04-11T03:04:47.994Z,40.38
2019-04-11T03:07:16.616Z,43.45
2019-04-11T03:09:46.860Z,43.45
2019-04-11T03:12:15.658Z,40.08
2019-04-11T03:15:03.703Z,36.88
2019-04-11T03:17:22.623Z,37.90
2019-04-11T03:19:59.469Z,37.10
2019-04-11T03:22:16.130Z,37.10
2019-04-11T03:24:44.313Z,37.20
2019-04-11T03:27:13.213Z,39.27
2019-04-11T03:29:43.106Z,38.25
2019-04-11T03:38:00.118Z,35.63
2019-04-11T03:40:28.802Z,38.05
2019-04-11T03:42:50.257Z,37.95
2019-04-11T03:45:32.878Z,39.08
2019-04-11T03:47:57.737Z,39.58
2019-04-11T03:50:21.481Z,42.03
2019-04-11T03:52:47.204Z,41.37
2019-04-11T03:55:23.468Z,39.53
2019-04-11T03:57:54.229Z,39.20
2019-04-11T04:03:46.554Z,32.98
2019-04-11T04:06:21.141Z,32.90
2019-04-11T04:08:50.780Z,29.42
2019-04-11T04:11:25.123Z,31.48
2019-04-11T04:14:17.717Z,33.78
2019-04-11T04:17:17.074Z,32.40
2019-04-11T04:20:05.556Z,32.90
2019-04-11T04:23:05.166Z,32.60
2019-04-11T04:25:34.750Z,33.60
2019-04-11T04:28:05.407Z,34.63
2019-04-11T04:30:36.016Z,34.73
2019-04-11T04:33:05.024Z,35.30
2019-04-11T04:35:33.924Z,34.90
2019-04-11T04:38:05.044Z,35.48
2019-04-11T04:40:50.090Z,36.70
2019-04-11T04:43:10.421Z,34.92
2019-04-11T04:45:58.120Z,36.20
2019-04-11T04:48:13.726Z,35.25
2019-04-11T04:50:42.348Z,35.95
2019-04-11T04:53:10.375Z,41.65
2019-04-11T04:55:38.165Z,42.83
2019-04-11T04:58:12.869Z,44.50
2019-04-11T05:00:41.738Z,42.80
2019-04-11T05:03:13.492Z,39.40
2019-04-11T05:05:42.424Z,38.00
2019-04-11T05:08:12.294Z,35.68
2019-04-11T05:10:40.418Z,35.40
2019-04-11T05:13:09.925Z,34.43
2019-04-11T05:15:38.678Z,33.70
2019-04-11T05:18:08.694Z,33.67
2019-04-11T05:20:36.522Z,32.83
2019-04-11T05:23:06.357Z,31.68
2019-04-11T05:25:34.875Z,30.70
2019-04-11T05:28:02.632Z,28.32
2019-04-11T05:30:31.588Z,23.70
2019-04-11T05:33:05.941Z,18.52
2019-04-11T05:35:34.503Z,14.90
2019-04-11T05:38:08.852Z,14.10
2019-04-11T05:40:37.739Z,11.75
2019-04-11T05:43:06.011Z,10.05
2019-04-11T05:45:34.246Z,9.25
2019-04-11T05:48:09.482Z,9.93
2019-04-11T05:50:43.293Z,10.30
2019-04-11T05:53:09.519Z,10.82
2019-04-11T05:55:42.128Z,12.25
2019-04-11T05:58:14.099Z,12.20
2019-04-11T06:01:15.101Z,14.10
2019-04-11T06:03:45.365Z,15.65
2019-04-11T06:06:40.254Z,15.03
2019-04-11T06:09:15.902Z,16.87
2019-04-11T06:11:57.974Z,13.90
2019-04-11T06:14:50.276Z,12.85
2019-04-11T06:17:21.948Z,12.58
2019-04-11T06:20:12.534Z,12.05
2019-04-11T06:22:47.715Z,10.20
2019-04-11T06:25:35.810Z,8.90
2019-04-11T06:28:14.925Z,6.03
2019-04-11T06:31:01.102Z,6.72
2019-04-11T06:33:37.529Z,6.70
2019-04-11T06:36:26.654Z,5.28
2019-04-11T06:39:13.778Z,3.95
2019-04-11T06:41:56.984Z,4.95
2019-04-11T06:44:48.015Z,4.10
2019-04-11T06:47:34.711Z,4.40
2019-04-11T06:50:21.405Z,4.30
2019-04-11T06:52:49.478Z,4.20
2019-04-11T06:55:37.079Z,4.00
2019-04-11T06:58:12.970Z,4.00
2019-04-11T07:00:43.713Z,3.10
2019-04-11T07:03:22.317Z,2.55
2019-04-11T07:05:43.871Z,4.12
2019-04-11T07:08:12.111Z,3.45
2019-04-11T07:10:48.862Z,4.17
2019-04-11T07:13:39.323Z,5.05
2019-04-11T07:16:08.994Z,2.87
2019-04-11T07:19:13.444Z,4.15
2019-04-11T07:21:42.411Z,6.85
2019-04-11T07:24:41.568Z,5.08
2019-04-11T07:27:13.797Z,4.60
2019-04-11T07:29:58.846Z,6.17
2019-04-11T07:32:27.902Z,3.77
2019-04-11T07:35:30.517Z,2.60
2019-04-11T07:37:58.436Z,2.12
2019-04-11T07:40:44.660Z,3.05
2019-04-11T07:43:20.249Z,3.12
2019-04-11T07:46:25.236Z,3.55
2019-04-11T07:48:55.905Z,3.37
2019-04-11T07:51:27.964Z,3.20
2019-04-11T07:54:00.281Z,4.10
2019-04-11T07:56:52.796Z,2.47
2019-04-11T07:59:46.753Z,2.33
2019-04-11T08:02:47.724Z,2.45
2019-04-11T08:05:34.557Z,3.30
2019-04-11T08:08:23.240Z,2.92
2019-04-11T08:11:13.576Z,3.33
2019-04-11T08:14:16.487Z,2.50
2019-04-11T08:17:27.930Z,3.47
2019-04-11T08:20:07.934Z,2.80
2019-04-11T08:22:39.226Z,3.30
2019-04-11T08:25:15.371Z,3.17
2019-04-11T09:37:14.417Z,3.65
2019-04-11T09:40:12.262Z,3.40
2019-04-11T09:42:59.645Z,3.20
2019-04-11T09:45:47.979Z,2.98
2019-04-11T09:48:38.560Z,3.17
2019-04-11T09:51:44.241Z,3.50
2019-04-11T09:54:44.202Z,3.90
2019-04-11T09:57:20.589Z,3.35
2019-04-11T10:00:10.189Z,2.70
2019-04-11T10:02:51.157Z,3.87
2019-04-11T10:05:22.795Z,2.95
2019-04-11T10:08:10.842Z,2.80
2019-04-11T10:11:17.734Z,3.05
2019-04-11T10:14:05.501Z,3.47
2019-04-11T10:16:52.797Z,3.62
2019-04-11T10:19:46.498Z,4.28
2019-04-11T10:22:34.145Z,4.15
2019-04-11T10:25:15.195Z,4.50
2019-04-11T10:28:21.701Z,3.90
2019-04-11T10:31:15.590Z,4.10
2019-04-11T10:34:09.272Z,4.15
2019-04-11T10:36:49.913Z,5.00
2019-04-11T10:39:35.951Z,3.90
2019-04-11T10:42:06.881Z,5.42
2019-04-11T10:45:14.396Z,4.60
2019-04-11T10:47:42.216Z,4.20
2019-04-11T10:50:29.669Z,4.00
2019-04-11T10:53:00.623Z,3.92
2019-04-11T10:55:47.103Z,3.55
2019-04-11T10:58:20.914Z,3.90
2019-04-11T11:01:11.497Z,4.28
2019-04-11T11:04:08.011Z,4.60
2019-04-11T11:06:35.918Z,3.80
2019-04-11T11:09:19.790Z,4.08
2019-04-11T11:12:06.148Z,3.65
2019-04-11T11:15:11.462Z,4.40
2019-04-11T11:18:36.318Z,3.22
2019-04-11T11:20:50.036Z,3.62
2019-04-11T11:23:24.682Z,3.35
2019-04-11T11:26:12.746Z,3.20
2019-04-11T11:29:05.294Z,4.70
2019-04-11T11:31:36.381Z,3.45
2019-04-11T11:34:05.589Z,2.70
2019-04-11T11:36:51.975Z,2.92
2019-04-11T11:39:26.902Z,3.35
2019-04-11T11:42:14.170Z,3.00
2019-04-11T11:44:59.355Z,2.67
2019-04-11T11:47:57.240Z,3.58
2019-04-11T11:50:27.304Z,2.75
2019-04-11T11:53:20.616Z,2.92
2019-04-11T11:55:49.554Z,3.62
2019-04-11T11:58:43.459Z,1.80
2019-04-11T12:01:11.636Z,1.87
2019-04-11T12:04:06.827Z,3.00
2019-04-11T12:06:35.442Z,1.70
2019-04-11T12:09:24.650Z,3.02
2019-04-11T12:11:57.062Z,1.65
2019-04-11T12:14:43.383Z,1.95
2019-04-11T12:17:29.289Z,5.08
2019-04-11T12:20:08.957Z,1.50
2019-04-11T12:22:34.737Z,1.85
2019-04-11T12:25:18.007Z,2.10
2019-04-11T12:28:13.200Z,2.60
2019-04-11T12:30:41.986Z,2.47
2019-04-11T12:33:21.528Z,1.60
2019-04-11T12:36:09.862Z,1.65
2019-04-11T12:38:44.953Z,2.00
2019-04-11T12:41:23.100Z,1.95
2019-04-11T12:44:13.746Z,1.65
2019-04-11T12:47:13.073Z,1.82
2019-04-11T12:49:59.932Z,2.20
2019-04-11T12:52:37.659Z,1.65
2019-04-11T12:55:06.393Z,1.55
2019-04-11T12:58:05.163Z,1.32
2019-04-11T13:00:52.738Z,1.90
2019-04-11T13:03:39.939Z,2.22
2019-04-11T13:06:15.731Z,1.65
2019-04-11T13:09:09.320Z,2.10
2019-04-11T13:11:38.198Z,1.32
2019-04-11T13:14:13.612Z,1.47
2019-04-11T13:16:43.137Z,19.65
2019-04-11T13:19:30.395Z,43.13
2019-04-11T13:22:01.779Z,2.40
2019-04-11T13:24:49.015Z,1.80
2019-04-11T13:27:25.721Z,2.33
2019-04-11T13:30:13.101Z,1.90
2019-04-11T13:32:48.741Z,1.95
2019-04-11T13:35:34.328Z,2.27
2019-04-11T13:38:24.112Z,1.62
2019-04-11T13:41:23.256Z,2.80
2019-04-11T13:44:19.665Z,2.55
2019-04-11T13:47:07.176Z,1.80
2019-04-11T13:49:38.258Z,2.35
2019-04-11T13:52:29.434Z,1.77
2019-04-11T13:55:13.305Z,1.57
2019-04-11T13:58:00.959Z,1.80
2019-04-11T14:00:42.927Z,1.30
2019-04-11T14:03:43.528Z,1.85
2019-04-11T14:06:19.216Z,2.60
2019-04-11T14:09:09.523Z,2.67
2019-04-11T14:11:41.157Z,1.82
2019-04-11T14:14:24.366Z,1.50
2019-04-11T14:17:01.272Z,1.10
2019-04-11T14:19:54.531Z,1.80
2019-04-11T14:22:29.098Z,2.00
2019-04-11T14:25:19.829Z,1.98
2019-04-11T14:27:50.390Z,7.95
2019-04-11T14:30:37.803Z,6.08
2019-04-11T14:33:05.760Z,2.20
2019-04-11T14:35:51.668Z,2.45
2019-04-11T14:38:21.768Z,3.20
2019-04-11T14:44:02.677Z,3.00
2019-04-11T14:47:09.649Z,2.92
2019-04-11T14:49:40.548Z,2.72
2019-04-11T14:52:25.217Z,3.10
2019-04-11T14:54:59.071Z,4.03
2019-04-11T14:57:43.717Z,8.78
2019-04-11T15:00:32.354Z,4.20
2019-04-11T15:03:31.616Z,2.98
2019-04-11T15:06:15.372Z,3.45
2019-04-11T15:09:04.114Z,5.33
2019-04-11T15:11:44.427Z,3.83
2019-04-11T15:14:29.762Z,3.72
2019-04-11T15:17:10.653Z,3.80
2019-04-11T15:19:41.017Z,5.08
2019-04-11T15:22:35.687Z,5.58
2019-04-11T15:25:32.105Z,11.88
2019-04-11T15:28:13.187Z,11.53
2019-04-11T15:30:43.357Z,10.05
2019-04-11T15:33:44.783Z,46.95
2019-04-11T15:36:16.639Z,11.83
2019-04-11T15:39:10.420Z,8.40
2019-04-11T15:41:42.596Z,73.37
2019-04-11T15:44:32.922Z,14.47
2019-04-11T15:47:02.274Z,5.95
2019-04-11T15:49:48.161Z,6.00
2019-04-11T15:52:19.305Z,5.33
2019-04-11T15:55:19.741Z,5.92
2019-04-11T15:57:53.856Z,4.62
2019-04-11T16:00:43.639Z,5.05
2019-04-11T16:03:13.457Z,4.75
2019-04-11T16:06:01.572Z,3.98
2019-04-11T16:08:48.571Z,3.45
2019-04-11T16:11:51.652Z,3.70
2019-04-11T16:14:23.275Z,4.22
2019-04-11T16:17:13.770Z,4.20
2019-04-11T16:20:08.266Z,4.90
2019-04-11T16:23:10.724Z,4.47
2019-04-11T16:25:40.906Z,4.62
2019-04-11T16:28:47.481Z,4.90
2019-04-11T16:31:15.796Z,5.58
2019-04-11T16:33:50.330Z,4.60
2019-04-11T16:36:26.971Z,5.78
2019-04-11T16:39:26.980Z,5.33
2019-04-11T16:42:02.777Z,5.22
2019-04-11T16:44:41.356Z,5.15
2019-04-11T16:47:37.014Z,8.03
2019-04-11T16:50:04.998Z,7.10
2019-04-11T16:52:33.381Z,6.80
2019-04-11T16:55:04.441Z,6.75
2019-04-11T16:57:33.668Z,7.50
2019-04-11T17:00:01.607Z,8.00
2019-04-11T17:02:31.478Z,8.75
2019-04-11T17:05:00.530Z,7.35
2019-04-11T17:07:57.264Z,10.60
2019-04-11T17:10:44.954Z,8.50
2019-04-11T17:13:14.052Z,8.80
2019-04-11T17:15:44.372Z,10.35
2019-04-11T17:18:13.288Z,7.72
2019-04-11T17:20:43.774Z,7.70
2019-04-11T17:23:11.758Z,7.25
2019-04-11T17:25:40.073Z,8.53
2019-04-11T17:28:09.061Z,7.20
2019-04-11T17:30:36.940Z,7.80
2019-04-11T17:33:06.644Z,8.28
2019-04-11T17:35:34.752Z,8.48
2019-04-11T17:38:06.428Z,7.05
2019-04-11T17:40:39.368Z,8.15
2019-04-11T17:43:08.317Z,7.55
2019-04-11T17:45:37.295Z,7.35
2019-04-11T17:48:05.318Z,8.08
2019-04-11T17:50:38.297Z,8.88
2019-04-11T17:53:07.875Z,7.90
2019-04-11T17:55:38.814Z,9.38
2019-04-11T17:58:09.159Z,7.22
2019-04-11T18:00:39.703Z,5.80
2019-04-11T18:03:11.838Z,6.03
2019-04-11T18:05:47.576Z,6.12
2019-04-11T18:08:25.145Z,5.42
2019-04-11T18:10:56.843Z,5.47
2019-04-11T18:13:24.881Z,5.20
2019-04-11T18:15:55.651Z,5.22
2019-04-11T18:18:27.245Z,5.53
2019-04-11T18:20:55.691Z,8.00
2019-04-11T18:23:24.213Z,6.60
2019-04-11T18:25:52.857Z,7.30
2019-04-11T18:28:21.893Z,6.80
2019-04-11T18:30:53.813Z,7.47
2019-04-11T18:33:24.437Z,7.50
2019-04-11T18:35:52.484Z,8.80
2019-04-11T18:38:22.475Z,9.85
2019-04-11T18:40:50.830Z,8.25
2019-04-11T18:43:20.027Z,7.20
2019-04-11T18:45:47.717Z,6.40
2019-04-11T18:48:17.860Z,19.35
2019-04-11T18:50:46.013Z,15.98
2019-04-11T18:53:15.432Z,11.50
2019-04-11T18:55:44.967Z,11.10
2019-04-11T18:58:16.014Z,12.33
2019-04-11T19:00:45.404Z,8.88
2019-04-11T19:03:15.746Z,7.30
2019-04-11T19:05:43.836Z,7.30
2019-04-11T19:08:14.281Z,7.35
2019-04-11T19:10:45.753Z,6.72
2019-04-11T19:13:16.983Z,7.72
2019-04-11T19:15:48.742Z,7.95
2019-04-11T19:18:18.038Z,6.50
2019-04-11T19:20:52.908Z,5.92
2019-04-11T19:23:30.097Z,6.15
2019-04-11T19:26:06.798Z,5.12
2019-04-11T19:28:35.182Z,6.50
2019-04-11T19:31:05.148Z,6.92
2019-04-11T19:33:34.865Z,6.95
2019-04-11T19:36:06.287Z,6.08
2019-04-11T19:38:36.609Z,6.60
2019-04-11T19:41:04.765Z,5.95
2019-04-11T19:43:33.802Z,5.87
2019-04-11T19:46:04.853Z,7.17
2019-04-11T19:48:41.877Z,7.42
2019-04-11T19:51:19.399Z,9.20
2019-04-11T19:53:52.403Z,21.65
2019-04-11T20:00:53.918Z,9.13
2019-04-11T20:07:27.509Z,7.90
2019-04-11T20:10:11.641Z,8.63
2019-04-11T20:12:41.819Z,9.38
2019-04-11T20:15:13.492Z,8.63
2019-04-11T20:18:06.693Z,7.90
2019-04-11T20:20:55.631Z,8.68
2019-04-11T20:23:41.881Z,8.60
2019-04-11T20:26:30.596Z,9.35
2019-04-11T20:29:00.070Z,10.00
2019-04-11T20:31:28.549Z,9.13
2019-04-11T20:33:56.621Z,8.78
2019-04-11T20:36:33.340Z,8.23
2019-04-11T20:38:58.671Z,8.43
2019-04-11T20:41:27.798Z,7.97
2019-04-11T20:44:01.806Z,8.95
2019-04-11T20:46:41.987Z,8.05
2019-04-11T20:49:11.743Z,8.75
2019-04-11T20:51:45.008Z,7.30
2019-04-11T20:54:25.704Z,8.25
2019-04-11T20:56:56.815Z,8.30
2019-04-11T20:59:34.826Z,7.25
2019-04-11T21:02:01.783Z,9.00
2019-04-11T21:04:33.807Z,10.50
2019-04-11T21:07:02.641Z,11.73
2019-04-11T21:09:34.215Z,12.50
2019-04-11T21:12:08.954Z,9.98
2019-04-11T21:14:38.548Z,11.08
2019-04-11T21:17:23.340Z,10.13
2019-04-11T21:19:53.843Z,8.20
2019-04-11T21:22:24.233Z,9.45
2019-04-11T21:24:53.034Z,12.80
2019-04-11T21:27:23.872Z,11.30
2019-04-11T21:30:00.084Z,12.25
2019-04-11T21:32:31.854Z,12.65
2019-04-11T21:35:03.102Z,14.28
2019-04-11T21:37:41.159Z,16.17
2019-04-11T21:40:23.935Z,15.90
2019-04-11T21:42:54.249Z,14.60
2019-04-11T21:45:22.472Z,14.68
2019-04-11T21:47:50.270Z,14.10
2019-04-11T21:50:21.068Z,14.58
2019-04-11T21:52:48.924Z,15.32
2019-04-11T21:55:16.701Z,14.05
2019-04-11T21:57:48.839Z,14.95
2019-04-11T22:00:26.778Z,13.13
2019-04-11T22:02:57.473Z,13.18
2019-04-11T22:05:28.975Z,12.05
2019-04-11T22:08:00.902Z,12.45
2019-04-11T22:10:29.176Z,11.93
2019-04-11T22:13:00.416Z,9.50
2019-04-11T22:15:28.407Z,9.93
2019-04-11T22:17:58.341Z,8.98
2019-04-11T22:20:33.137Z,9.58
2019-04-11T22:23:02.735Z,10.08
2019-04-11T22:25:32.919Z,11.12
2019-04-11T22:28:04.406Z,12.37
2019-04-11T22:30:38.751Z,13.08
2019-04-11T22:33:21.847Z,13.55
2019-04-11T22:35:51.154Z,14.55
2019-04-11T22:38:19.360Z,12.98
2019-04-11T22:40:47.381Z,14.47
2019-04-11T22:43:24.368Z,14.40
2019-04-11T22:45:47.463Z,14.95
2019-04-11T22:48:19.050Z,14.10
2019-04-11T22:50:47.506Z,16.45
2019-04-11T22:53:15.634Z,16.55
2019-04-11T22:55:43.729Z,15.90
2019-04-11T22:58:14.684Z,17.25
2019-04-11T23:00:45.782Z,17.30
2019-04-11T23:03:21.951Z,18.35
2019-04-11T23:05:57.185Z,18.07
2019-04-11T23:08:25.436Z,16.87
2019-04-11T23:10:57.699Z,19.40
2019-04-11T23:13:27.724Z,18.50
2019-04-11T23:15:55.809Z,17.30
2019-04-11T23:18:23.616Z,18.27
2019-04-11T23:20:51.634Z,16.87
2019-04-11T23:23:19.724Z,18.40
2019-04-11T23:25:47.382Z,17.00
2019-04-11T23:28:15.823Z,17.15
2019-04-11T23:30:49.553Z,17.73
2019-04-11T23:33:14.534Z,17.27
2019-04-11T23:35:42.387Z,17.70
2019-04-11T23:38:10.313Z,22.30
2019-04-11T23:40:38.972Z,22.73
2019-04-11T23:43:12.576Z,20.72
2019-04-11T23:45:41.022Z,20.45
2019-04-11T23:48:08.668Z,23.02
2019-04-11T23:50:39.308Z,23.32
2019-04-11T23:53:07.316Z,20.95
2019-04-11T23:55:36.097Z,21.07
2019-04-11T23:58:05.884Z,21.65
